Arbuckle, California
Current Conditions -  °F | °C
As of 4:53 AM on Wednesday 26 Nov 2014 (Local Time) from KSMF Reporting Station
Light Fog Light Fog  
Wind Chill: 38°   Ceiling: 100
Heat Index: 38°   Visibility: 1mi
Dew Point: 37°   Wind: 0mph
Humidity: 97%   Direction: NA
Pressure: 30.34"   Gusts: NA
Location:  39.02°N, 122.06°W
Report Text: KSMF 261253Z 00000KT 1SM R16R/1000FT BR BCFG BKN001 03/03 A3034 RMK AO2 SLP272 T00330028
Loading
Personal Weather Stations






























Interactive Weather Map New forecast layout! Learn more

10-Day Weather Forecast

Advertisements
Track Severe Weather on mobile